Nokomis, Florida
Current Conditions -  °F | °C
As of 1:15 PM on Friday 19 Dec 2014 (Local Time) from KVNC Reporting Station
Clear Clear  
Wind Chill: 66°   Ceiling: Unl
Heat Index: 66°   Visibility: 10mi
Dew Point: 54°   Wind: 7mph
Humidity: 64%   Direction: 240°WSW
Pressure: 30.08"   Gusts: NA
Location:  27.12°N, 82.44°W
Report Text: KVNC 191815Z AUTO 24006KT 10SM CLR 19/12 A3008 RMK AO2 TSNO
Loading
Personal Weather Stations






























Interactive Weather Map New forecast layout! Learn more

10-Day Weather Forecast

Advertisements
Track Severe Weather on mobile